Time;durP1;ratioP1;P1;durP2;ratioP2;P2;SDS_P1;SDS_P2;PMS_P1;PMS_P2;Temp;Humidity;BMP_temperature;BMP_pressure;BME280_temperature;BME280_humidity;BME280_pressure;Samples;Min_cycle;Max_cycle;Signal;HPM_P1;HPM_P2
2023/11/17 00:00:13;;;;;;;0.77;0.77;;;;;;;10.04;77.12;98652.38;5053551;28;20107;-71
2023/11/17 00:02:42;;;;;;;0.40;0.40;;;;;;;10.07;77.42;98654.03;5053362;28;20045;-72
2023/11/17 00:05:12;;;;;;;0.90;0.90;;;;;;;10.06;77.03;98655.72;5053155;28;20103;-71
2023/11/17 00:07:40;;;;;;;;;;;;;;;10.05;77.67;98651.47;5053451;28;20564;-71
2023/11/17 00:10:10;;;;;;;0.95;0.90;;;;;;;10.02;78.08;98645.59;5055743;28;19927;-71
2023/11/17 00:12:41;;;;;;;0.50;0.50;;;;;;;9.99;77.96;98645.63;5059980;28;20395;-71
2023/11/17 00:15:13;;;;;;;0.57;0.57;;;;;;;9.98;78.28;98638.88;5059776;28;20071;-71
2023/11/17 00:17:42;;;;;;;0.57;0.55;;;;;;;9.99;77.93;98625.25;5059641;28;20055;-71
2023/11/17 00:20:11;;;;;;;0.67;0.67;;;;;;;10.01;77.99;98628.59;5059740;28;20048;-71
2023/11/17 00:22:40;;;;;;;;;;;;;;;10.00;77.93;98621.84;5060015;28;20402;-71
2023/11/17 00:25:09;;;;;;;0.75;0.75;;;;;;;9.99;78.22;98625.25;5059579;28;20015;-71
2023/11/17 00:27:38;;;;;;;0.40;0.40;;;;;;;9.89;78.97;98613.50;5059699;28;20495;-71
2023/11/17 00:30:08;;;;;;;0.75;0.65;;;;;;;9.92;78.78;98631.31;5059623;28;20045;-71
2023/11/17 00:32:38;;;;;;;0.50;0.50;;;;;;;9.87;79.41;98635.63;5059987;28;20049;-71
2023/11/17 00:35:09;;;;;;;0.55;0.55;;;;;;;9.87;79.45;98630.53;5059587;28;20056;-72
2023/11/17 00:37:39;;;;;;;0.30;0.30;;;;;;;9.87;79.84;98630.53;5058568;28;20549;-72
2023/11/17 00:40:10;;;;;;;0.65;0.65;;;;;;;9.82;80.19;98622.09;5058440;28;20526;-72
2023/11/17 00:42:39;;;;;;;0.68;0.68;;;;;;;9.77;80.51;98616.25;5059758;28;20510;-72
2023/11/17 00:45:10;;;;;;;0.35;0.35;;;;;;;9.73;80.75;98612.06;5059271;28;20045;-72
2023/11/17 00:47:40;;;;;;;0.70;0.70;;;;;;;9.73;81.06;98609.50;5059732;28;20052;-72
2023/11/17 00:50:11;;;;;;;1.15;1.00;;;;;;;9.73;80.82;98612.91;5059498;28;20132;-71
2023/11/17 00:52:41;;;;;;;0.38;0.38;;;;;;;9.62;81.69;98599.47;5058016;28;20059;-72
2023/11/17 00:55:13;;;;;;;0.40;0.40;;;;;;;9.64;81.79;98607.09;5058187;28;20065;-72
2023/11/17 00:57:44;;;;;;;0.32;0.32;;;;;;;9.63;81.98;98605.41;5058119;28;20045;-71
2023/11/17 01:00:14;;;;;;;0.50;0.50;;;;;;;9.64;81.85;98602.84;5059387;28;20045;-71
2023/11/17 01:02:46;;;;;;;2.10;1.02;;;;;;;9.63;82.14;98593.53;5058150;28;20106;-72
2023/11/17 01:05:15;;;;;;;0.88;0.82;;;;;;;9.60;81.92;98593.56;5059320;28;20056;-71
2023/11/17 01:07:45;;;;;;;0.40;0.40;;;;;;;9.59;82.66;98588.50;5059608;28;20106;-71
2023/11/17 01:10:15;;;;;;;2.17;1.10;;;;;;;9.60;82.53;98585.91;5058083;28;20514;-71
2023/11/17 01:12:44;;;;;;;0.77;0.65;;;;;;;9.60;82.90;98580.00;5058106;28;20049;-71
2023/11/17 01:15:13;;;;;;;;;;;;;;;9.59;83.15;98583.41;5058426;28;20102;-71
2023/11/17 01:17:43;;;;;;;3.40;1.83;;;;;;;9.63;83.32;98585.03;5058262;28;19983;-71
2023/11/17 01:20:13;;;;;;;;;;;;;;;9.65;83.18;98593.47;5059708;28;20033;-72
2023/11/17 01:22:42;;;;;;;0.88;0.88;;;;;;;9.59;83.23;98588.50;5054783;28;19928;-71
2023/11/17 01:25:11;;;;;;;0.40;0.40;;;;;;;9.56;83.56;98597.03;5056099;28;20048;-72
2023/11/17 01:27:40;;;;;;;0.55;0.55;;;;;;;9.60;83.40;98587.66;5054529;28;20063;-71
2023/11/17 01:30:10;;;;;;;0.68;0.68;;;;;;;9.51;83.12;98564.84;5056214;28;20124;-72
2023/11/17 01:32:40;;;;;;;0.68;0.68;;;;;;;9.58;83.31;98581.69;5054689;28;20512;-71
2023/11/17 01:35:09;;;;;;;0.47;0.47;;;;;;;9.57;83.58;98569.84;5056098;28;20497;-71
2023/11/17 01:37:39;;;;;;;;;;;;;;;9.55;83.97;98571.59;5054885;28;20057;-71
2023/11/17 01:40:10;;;;;;;0.30;0.30;;;;;;;9.52;83.75;98569.06;5056023;28;19928;-71
2023/11/17 01:42:39;;;;;;;0.20;0.20;;;;;;;9.52;83.96;98556.34;5054716;28;20049;-72
2023/11/17 01:45:09;;;;;;;0.73;0.73;;;;;;;9.49;83.88;98558.91;5056046;28;20159;-71
2023/11/17 01:47:39;;;;;;;;;;;;;;;9.52;84.09;98566.53;5055760;28;20131;-71
2023/11/17 01:50:11;;;;;;;0.70;0.70;;;;;;;9.52;83.97;98567.38;5055540;28;19921;-72
2023/11/17 01:52:44;;;;;;;0.43;0.43;;;;;;;9.53;84.75;98563.09;5055286;28;20092;-71
2023/11/17 01:55:16;;;;;;;1.00;0.98;;;;;;;9.48;83.90;98554.72;5054519;28;20447;-71
2023/11/17 01:57:46;;;;;;;0.60;0.50;;;;;;;9.38;84.43;98534.44;5054331;28;20051;-71
2023/11/17 02:00:16;;;;;;;0.95;0.85;;;;;;;9.37;84.17;98522.59;5054425;28;20075;-71
2023/11/17 02:02:48;;;;;;;0.85;0.85;;;;;;;9.51;84.32;98536.81;5054110;28;20123;-72
2023/11/17 02:05:20;;;;;;;0.52;0.52;;;;;;;9.38;84.37;98511.53;5053905;28;20169;-72
2023/11/17 02:08:12;;;;;;;0.73;0.73;;;;;;;9.44;84.85;98523.34;5055363;28;20049;-71
2023/11/17 02:10:54;;;;;;;0.30;0.30;;;;;;;9.45;84.91;98509.75;5053905;28;20047;-71
2023/11/17 02:13:26;;;;;;;1.85;0.85;;;;;;;9.46;84.77;98506.34;5053992;28;20521;-71
2023/11/17 02:16:01;;;;;;;1.05;1.02;;;;;;;9.48;84.36;98498.69;5055017;28;20049;-71
2023/11/17 02:18:37;;;;;;;0.40;0.40;;;;;;;9.48;84.71;98494.41;5054932;28;20128;-72
2023/11/17 02:21:08;;;;;;;0.30;0.30;;;;;;;9.50;84.45;98490.16;5055246;28;20048;-71
2023/11/17 02:23:42;;;;;;;1.80;1.45;;;;;;;9.39;84.56;98482.66;5053854;28;20411;-71
2023/11/17 02:26:18;;;;;;;0.40;0.40;;;;;;;9.47;84.32;98497.00;5054886;28;20041;-72
2023/11/17 02:28:58;;;;;;;2.38;1.27;;;;;;;9.50;85.07;98496.94;5055054;28;20151;-71
2023/11/17 02:31:32;;;;;;;0.73;0.73;;;;;;;9.52;84.58;98492.66;5054896;28;20056;-72
2023/11/17 02:34:04;;;;;;;1.10;0.80;;;;;;;9.50;85.17;98489.31;5053483;28;20040;-71
2023/11/17 02:36:34;;;;;;;0.30;0.30;;;;;;;9.34;85.14;98465.78;5053950;28;20063;-71
2023/11/17 02:39:14;;;;;;;0.38;0.38;;;;;;;9.49;85.26;98490.16;5053427;28;20071;-71
2023/11/17 02:41:48;;;;;;;0.60;0.60;;;;;;;9.48;85.09;98493.59;5054404;28;20053;-71
2023/11/17 02:44:19;;;;;;;0.35;0.35;;;;;;;9.49;85.71;98492.72;5055092;28;20399;-72
2023/11/17 02:46:58;;;;;;;0.32;0.32;;;;;;;9.42;85.21;98485.19;5054311;28;20048;-72
2023/11/17 02:49:40;;;;;;;1.15;1.05;;;;;;;9.45;85.81;98499.56;5053481;28;20045;-72
2023/11/17 02:52:15;;;;;;;0.43;0.43;;;;;;;9.44;85.91;98501.28;5054028;28;20111;-72
2023/11/17 02:54:44;;;;;;;0.60;0.60;;;;;;;9.36;85.82;98487.81;5053356;28;20048;-71
2023/11/17 02:57:15;;;;;;;0.47;0.47;;;;;;;9.45;85.90;98495.28;5069671;28;20036;-72
2023/11/17 02:59:46;;;;;;;0.75;0.75;;;;;;;9.48;86.08;98493.59;5054710;28;20368;-72
2023/11/17 03:02:19;;;;;;;0.50;0.50;;;;;;;9.49;85.53;98501.19;5053182;28;20044;-72
2023/11/17 03:04:54;;;;;;;0.63;0.63;;;;;;;9.49;85.97;98500.34;5054416;28;20490;-72
2023/11/17 03:07:23;;;;;;;2.58;1.08;;;;;;;9.51;86.02;98503.72;5052905;28;20075;-72
2023/11/17 03:09:52;;;;;;;1.00;0.85;;;;;;;9.47;85.78;98494.44;5054047;28;20053;-72
2023/11/17 03:12:21;;;;;;;;;;;;;;;9.49;86.17;98497.81;5053327;28;20052;-72
2023/11/17 03:14:53;;;;;;;0.73;0.73;;;;;;;9.49;86.26;98490.16;5054129;28;20363;-72
2023/11/17 03:17:25;;;;;;;1.85;0.80;;;;;;;9.48;86.20;98493.59;5053084;28;20071;-72
2023/11/17 03:19:55;;;;;;;0.50;0.50;;;;;;;9.45;86.54;98487.66;5053990;28;20052;-72
2023/11/17 03:22:23;;;;;;;1.15;0.73;;;;;;;9.32;85.97;98478.53;5053734;28;20044;-71
2023/11/17 03:24:52;;;;;;;0.30;0.30;;;;;;;9.41;86.65;98493.66;5052743;28;20041;-71
2023/11/17 03:27:22;;;;;;;1.42;1.33;;;;;;;9.29;86.11;98478.59;5054192;28;20076;-72
2023/11/17 03:29:51;;;;;;;0.80;0.80;;;;;;;9.38;86.94;98493.72;5053774;28;20057;-72
2023/11/17 03:32:20;;;;;;;0.50;0.50;;;;;;;9.37;86.79;98492.03;5054134;28;20294;-72
2023/11/17 03:34:51;;;;;;;0.40;0.40;;;;;;;9.40;86.97;98497.09;5053722;28;20072;-71
2023/11/17 03:37:19;;;;;;;0.70;0.45;;;;;;;9.37;86.92;98501.38;5052930;28;20098;-71
2023/11/17 03:39:48;;;;;;;4.75;0.70;;;;;;;9.30;87.55;98498.09;5053565;28;20041;-71
2023/11/17 03:42:18;;;;;;;0.55;0.55;;;;;;;9.26;87.66;98498.16;5053456;28;20112;-72
2023/11/17 03:44:48;;;;;;;0.38;0.38;;;;;;;9.20;87.81;98483.81;5052934;28;20132;-72
2023/11/17 03:47:18;;;;;;;1.30;1.05;;;;;;;9.26;87.61;98493.06;5053790;28;20087;-72
2023/11/17 03:49:50;;;;;;;1.13;0.90;;;;;;;9.29;87.89;98483.66;5052542;28;20037;-71
2023/11/17 03:52:23;;;;;;;0.85;0.85;;;;;;;9.29;88.14;98493.00;5053238;28;20403;-72
2023/11/17 03:54:56;;;;;;;0.68;0.68;;;;;;;9.26;88.44;98488.81;5052381;28;20053;-71
2023/11/17 03:57:25;;;;;;;0.80;0.80;;;;;;;9.25;88.49;98482.03;5052286;28;20045;-72
2023/11/17 03:59:54;;;;;;;0.77;0.77;;;;;;;9.24;87.99;98482.03;5053283;28;20033;-72
2023/11/17 04:02:23;;;;;;;0.40;0.40;;;;;;;9.20;88.78;98488.91;5052052;28;20044;-72
2023/11/17 04:04:53;;;;;;;;;;;;;;;9.18;88.20;98480.47;5053716;28;20043;-72
2023/11/17 04:07:23;;;;;;;0.60;0.60;;;;;;;9.13;88.30;98481.38;5053305;28;20019;-71
2023/11/17 04:09:52;;;;;;;0.60;0.60;;;;;;;9.10;88.92;98482.25;5053235;28;20072;-72
2023/11/17 04:12:21;;;;;;;7.40;3.13;;;;;;;9.07;88.90;98482.28;5053248;28;20125;-72
2023/11/17 04:14:51;;;;;;;1.85;1.50;;;;;;;9.09;89.25;98479.75;5053312;28;20055;-72
2023/11/17 04:17:20;;;;;;;2.53;1.17;;;;;;;9.07;88.89;98466.22;5052035;28;20099;-71
2023/11/17 04:19:49;;;;;;;0.57;0.57;;;;;;;9.11;89.48;98473.78;5053474;28;20132;-72
2023/11/17 04:22:20;;;;;;;0.45;0.45;;;;;;;9.07;89.32;98459.38;5053125;28;20052;-71
2023/11/17 04:24:50;;;;;;;1.98;1.85;;;;;;;9.11;89.24;98470.38;5053054;28;20079;-71
2023/11/17 04:27:19;;;;;;;1.30;0.90;;;;;;;9.12;89.39;98464.41;5053020;28;20129;-72
2023/11/17 04:29:48;;;;;;;0.50;0.50;;;;;;;9.09;89.30;98472.97;5052942;28;20087;-71
2023/11/17 04:32:17;;;;;;;1.08;0.88;;;;;;;9.06;89.70;98465.38;5053091;28;20550;-70
2023/11/17 04:34:46;;;;;;;2.30;1.20;;;;;;;9.12;90.06;98475.44;5052981;28;20045;-71
2023/11/17 04:37:15;;;;;;;0.60;0.60;;;;;;;9.14;89.88;98477.97;5053073;28;20052;-72
2023/11/17 04:39:45;;;;;;;1.55;0.98;;;;;;;9.13;89.80;98481.38;5053276;28;20036;-72
2023/11/17 04:42:14;;;;;;;0.60;0.60;;;;;;;9.15;89.69;98482.19;5053233;28;20068;-72
2023/11/17 04:44:43;;;;;;;0.98;0.93;;;;;;;9.16;90.12;98482.19;5052935;28;20041;-70
2023/11/17 04:47:14;;;;;;;0.20;0.20;;;;;;;9.13;89.45;98474.59;5052894;28;20049;-72
2023/11/17 04:49:45;;;;;;;0.60;0.60;;;;;;;9.18;89.73;98484.69;5053186;28;20071;-72
2023/11/17 04:52:15;;;;;;;0.88;0.88;;;;;;;9.18;90.07;98488.09;5052761;28;20060;-72
2023/11/17 04:54:47;;;;;;;0.30;0.30;;;;;;;9.20;89.75;98491.44;5053078;28;20580;-72
2023/11/17 04:57:16;;;;;;;1.17;1.13;;;;;;;9.21;90.04;98484.66;5055383;28;20122;-70
2023/11/17 04:59:45;;;;;;;1.55;1.27;;;;;;;9.18;90.12;98485.53;5056572;28;20040;-72
2023/11/17 05:02:14;;;;;;;;;;;;;;;9.16;90.03;98487.28;5056995;28;20102;-72
2023/11/17 05:04:43;;;;;;;0.43;0.43;;;;;;;9.16;89.79;98487.28;5056874;28;20003;-72
2023/11/17 05:07:12;;;;;;;0.40;0.40;;;;;;;9.12;89.69;98485.63;5056651;28;20542;-72
2023/11/17 05:09:42;;;;;;;0.50;0.50;;;;;;;9.13;89.93;98483.91;5056388;28;20560;-72
2023/11/17 05:12:13;;;;;;;1.08;0.95;;;;;;;9.14;89.65;98494.06;5055264;28;20091;-72
2023/11/17 05:14:43;;;;;;;2.83;0.95;;;;;;;9.14;89.79;98488.97;5056413;28;20040;-72
2023/11/17 05:17:15;;;;;;;0.40;0.40;;;;;;;9.15;90.64;98487.28;5056528;28;20418;-72
2023/11/17 05:19:45;;;;;;;0.93;0.93;;;;;;;9.14;90.09;98493.25;5056573;28;20045;-72
2023/11/17 05:22:14;;;;;;;4.70;1.65;;;;;;;9.15;90.80;98490.66;5056136;28;20049;-72
2023/11/17 05:24:44;;;;;;;0.50;0.50;;;;;;;9.07;89.98;98484.84;5056539;28;20451;-71
2023/11/17 05:27:15;;;;;;;0.73;0.73;;;;;;;9.08;90.03;98496.72;5056096;28;20047;-72
2023/11/17 05:29:44;;;;;;;1.75;1.45;;;;;;;9.07;90.48;98502.66;5055980;28;20483;-71
2023/11/17 05:32:13;;;;;;;0.47;0.47;;;;;;;9.09;90.20;98500.94;5056074;28;20052;-72
2023/11/17 05:34:41;;;;;;;0.93;0.93;;;;;;;9.05;90.77;98499.28;5056420;28;20387;-71
2023/11/17 05:37:10;;;;;;;0.50;0.50;;;;;;;9.04;91.25;98507.81;5055895;28;20044;-72
2023/11/17 05:39:39;;;;;;;0.87;0.87;;;;;;;9.02;90.63;98514.59;5054689;28;20068;-71
2023/11/17 05:42:08;;;;;;;0.45;0.45;;;;;;;9.00;91.03;98515.50;5056074;28;20052;-71
2023/11/17 05:44:39;;;;;;;;;;;;;;;8.99;90.52;98514.66;5056179;28;20037;-71
2023/11/17 05:47:08;;;;;;;0.38;0.38;;;;;;;9.00;90.86;98516.31;5056267;28;19924;-71
2023/11/17 05:49:42;;;;;;;0.60;0.60;;;;;;;8.95;91.34;98523.16;5055571;28;20037;-71
2023/11/17 05:52:12;;;;;;;0.40;0.40;;;;;;;8.94;91.11;98521.50;5055951;28;20530;-71
2023/11/17 05:54:43;;;;;;;;;;;;;;;8.95;90.77;98522.34;5056045;28;20052;-71
2023/11/17 05:57:13;;;;;;;0.70;0.70;;;;;;;8.90;90.65;98524.94;5055454;28;19920;-71
2023/11/17 05:59:48;;;;;;;0.73;0.70;;;;;;;8.87;91.61;98529.22;5055733;28;20407;-71
2023/11/17 06:02:21;;;;;;;2.83;1.08;;;;;;;8.88;90.78;98541.09;5055718;28;20164;-71
2023/11/17 06:04:51;;;;;;;0.40;0.40;;;;;;;8.86;91.53;98545.34;5055716;28;20045;-71
2023/11/17 06:07:20;;;;;;;1.08;1.08;;;;;;;8.86;90.99;98548.75;5054908;28;20037;-71
2023/11/17 06:09:49;;;;;;;0.40;0.40;;;;;;;8.91;91.43;98553.75;5037393;28;20124;-71
2023/11/17 06:12:18;;;;;;;1.52;1.08;;;;;;;8.90;91.97;98555.47;5055701;28;20278;-71
2023/11/17 06:14:48;;;;;;;1.20;1.10;;;;;;;8.80;91.02;98541.19;5055278;28;20057;-71
2023/11/17 06:17:17;;;;;;;2.25;1.80;;;;;;;8.89;91.51;98563.97;5055155;28;20041;-71
2023/11/17 06:19:46;;;;;;;3.08;1.50;;;;;;;8.83;91.42;98564.03;5055007;28;20078;-71
2023/11/17 06:22:14;;;;;;;0.70;0.70;;;;;;;8.81;91.80;98570.84;5055240;28;20067;-71
2023/11/17 06:24:43;;;;;;;0.67;0.67;;;;;;;8.81;91.32;98570.84;5053927;28;20411;-71
2023/11/17 06:27:13;;;;;;;0.68;0.68;;;;;;;8.84;91.71;98581.00;5055258;28;20518;-71
2023/11/17 06:29:41;;;;;;;1.00;0.80;;;;;;;8.74;91.82;98559.91;5054673;28;20094;-71
2023/11/17 06:32:12;;;;;;;2.60;1.48;;;;;;;8.81;91.65;98575.94;5054843;28;20041;-71
2023/11/17 06:34:41;;;;;;;1.35;1.15;;;;;;;8.77;91.63;98580.22;5054812;28;20045;-71
2023/11/17 06:37:11;;;;;;;0.52;0.52;;;;;;;8.77;92.47;98580.22;5054947;28;20033;-71
2023/11/17 06:39:40;;;;;;;0.68;0.68;;;;;;;8.75;92.31;98586.19;5054660;28;20040;-71
2023/11/17 06:42:10;;;;;;;0.98;0.98;;;;;;;8.72;91.80;98587.06;5054661;28;20052;-71
2023/11/17 06:44:40;;;;;;;0.55;0.55;;;;;;;8.68;91.91;98587.97;5055020;28;20070;-71
2023/11/17 06:47:08;;;;;;;;;;;;;;;8.74;92.30;98599.75;5055009;28;20052;-70
2023/11/17 06:49:39;;;;;;;1.63;1.53;;;;;;;8.74;92.21;98599.75;5053530;28;19924;-71
2023/11/17 06:52:08;;;;;;;0.65;0.65;;;;;;;8.75;92.88;98607.38;5054533;28;20294;-71
2023/11/17 06:54:37;;;;;;;1.75;0.80;;;;;;;8.63;92.45;98599.03;5054781;28;20067;-71
2023/11/17 06:57:06;;;;;;;0.57;0.57;;;;;;;8.67;92.78;98621.03;5054663;28;20449;-71
2023/11/17 06:59:35;;;;;;;0.50;0.50;;;;;;;8.70;92.82;98623.53;5054340;28;20843;-71
2023/11/17 07:02:05;;;;;;;0.52;0.52;;;;;;;8.68;92.60;98630.34;5054197;28;20044;-70
2023/11/17 07:04:34;;;;;;;3.58;2.03;;;;;;;8.67;92.79;98623.56;5054753;28;20056;-71
2023/11/17 07:07:05;;;;;;;0.40;0.40;;;;;;;8.75;93.21;98634.50;5054292;28;20041;-70
2023/11/17 07:09:39;;;;;;;0.73;0.73;;;;;;;8.77;93.33;98627.72;5054275;28;20380;-70
2023/11/17 07:12:08;;;;;;;0.35;0.35;;;;;;;8.79;93.11;98638.69;5053894;28;20052;-71
2023/11/17 07:14:37;;;;;;;1.73;1.63;;;;;;;8.63;93.00;98616.84;5053994;28;20045;-70
2023/11/17 07:17:06;;;;;;;1.23;0.85;;;;;;;8.81;93.34;98646.31;5054032;28;20065;-71
2023/11/17 07:19:35;;;;;;;1.58;0.95;;;;;;;8.79;93.16;98643.78;5053207;28;20439;-71
2023/11/17 07:22:05;;;;;;;1.13;1.00;;;;;;;8.82;93.48;98648.84;5054135;28;20037;-71
2023/11/17 07:24:36;;;;;;;1.17;0.88;;;;;;;8.84;93.82;98647.13;5054259;28;20041;-71
2023/11/17 07:27:07;;;;;;;1.13;0.75;;;;;;;8.82;92.98;98653.94;5053602;28;20054;-71
2023/11/17 07:29:36;;;;;;;1.15;1.05;;;;;;;8.80;93.88;98659.91;5044261;28;20041;-71
2023/11/17 07:32:06;;;;;;;0.30;0.30;;;;;;;8.80;93.68;98662.44;5033690;28;20135;-71
2023/11/17 07:34:35;;;;;;;0.50;0.50;;;;;;;8.75;93.97;98662.50;5033950;28;20495;-71
2023/11/17 07:37:05;;;;;;;1.07;1.07;;;;;;;8.74;93.11;98665.88;5036914;28;20083;-71
2023/11/17 07:39:34;;;;;;;0.40;0.40;;;;;;;8.72;93.49;98670.16;5053918;28;20037;-70
2023/11/17 07:42:04;;;;;;;0.80;0.80;;;;;;;8.72;93.31;98675.25;5053595;28;20479;-71
2023/11/17 07:44:36;;;;;;;0.30;0.30;;;;;;;8.70;93.40;98679.50;5053441;28;20133;-71
2023/11/17 07:47:05;;;;;;;0.40;0.40;;;;;;;8.68;92.99;98665.97;5053622;28;20045;-71
2023/11/17 07:49:34;;;;;;;0.43;0.43;;;;;;;8.65;93.00;98671.91;5053323;28;20037;-71
2023/11/17 07:52:03;;;;;;;;;;;;;;;8.67;93.28;98679.53;5053502;28;20048;-71
2023/11/17 07:54:34;;;;;;;0.30;0.30;;;;;;;8.67;93.12;98679.53;5044576;28;19921;-71
2023/11/17 07:57:02;;;;;;;0.98;0.85;;;;;;;8.66;93.06;98677.84;5047812;28;20059;-71
2023/11/17 07:59:31;;;;;;;0.40;0.40;;;;;;;8.68;92.44;98684.63;5047012;28;20398;-71
2023/11/17 08:02:00;;;;;;;0.40;0.40;;;;;;;8.70;92.46;98690.53;5046526;28;20049;-71
2023/11/17 08:04:29;;;;;;;0.63;0.63;;;;;;;8.69;92.51;98693.06;5033674;28;20041;-71
2023/11/17 08:07:00;;;;;;;0.40;0.40;;;;;;;8.66;92.61;98691.38;5052925;28;20376;-71
2023/11/17 08:09:33;;;;;;;3.63;2.13;;;;;;;8.66;92.43;98698.19;5039070;28;20502;-71
2023/11/17 08:12:03;;;;;;;0.50;0.50;;;;;;;8.64;91.82;98699.88;5050675;28;20041;-71
2023/11/17 08:14:33;;;;;;;1.20;1.10;;;;;;;8.44;91.94;98667.03;5053275;28;20053;-71
2023/11/17 08:17:02;;;;;;;0.63;0.63;;;;;;;8.63;91.85;98708.41;5053201;28;20564;-71
2023/11/17 08:19:31;;;;;;;0.60;0.60;;;;;;;8.63;91.61;98710.94;5053507;28;20047;-71
2023/11/17 08:22:00;;;;;;;0.30;0.30;;;;;;;8.65;91.54;98716.84;5053004;28;20238;-71
2023/11/17 08:24:29;;;;;;;0.47;0.47;;;;;;;8.65;91.00;98732.09;5052181;28;20376;-71
2023/11/17 08:26:57;;;;;;;0.40;0.40;;;;;;;8.59;91.10;98727.09;5051946;28;20033;-71
2023/11/17 08:29:27;;;;;;;0.40;0.40;;;;;;;8.68;91.15;98737.19;5053281;28;20053;-71
2023/11/17 08:31:56;;;;;;;0.30;0.30;;;;;;;8.68;91.07;98743.13;5056216;28;20111;-71
2023/11/17 08:34:25;;;;;;;0.80;0.80;;;;;;;8.71;90.68;98748.16;5057177;28;20495;-71
2023/11/17 08:36:54;;;;;;;0.30;0.30;;;;;;;8.57;91.29;98733.84;5057412;28;20286;-71
2023/11/17 08:39:26;;;;;;;0.70;0.70;;;;;;;8.74;90.32;98763.41;5056957;28;20068;-71
2023/11/17 08:41:56;;;;;;;1.20;1.10;;;;;;;8.77;90.34;98763.38;5056916;28;20478;-71
2023/11/17 08:44:28;;;;;;;0.77;0.77;;;;;;;8.79;90.66;98776.06;5057179;28;20095;-71
2023/11/17 08:46:58;;;;;;;0.45;0.45;;;;;;;8.82;90.24;98780.28;5056123;28;20116;-71
2023/11/17 08:49:26;;;;;;;0.88;0.82;;;;;;;8.83;90.15;98793.00;5057121;28;20048;-71
2023/11/17 08:51:57;;;;;;;0.37;0.37;;;;;;;8.79;90.68;98796.44;5056476;28;20554;-71
2023/11/17 08:54:26;;;;;;;0.55;0.55;;;;;;;8.77;90.86;98793.06;5055785;28;20296;-71
2023/11/17 08:56:58;;;;;;;1.15;1.05;;;;;;;8.66;90.60;98784.66;5056963;28;20036;-71
2023/11/17 08:59:29;;;;;;;0.47;0.47;;;;;;;8.73;90.48;98801.56;5055765;28;20056;-72
2023/11/17 09:01:58;;;;;;;0.50;0.50;;;;;;;8.72;90.53;98812.59;5056507;28;20542;-72
2023/11/17 09:04:27;;;;;;;0.40;0.40;;;;;;;8.73;89.57;98804.13;5056538;28;20417;-71
2023/11/17 09:06:56;;;;;;;0.65;0.65;;;;;;;8.72;89.49;98820.22;5056845;28;20103;-72
2023/11/17 09:09:26;;;;;;;0.40;0.40;;;;;;;8.74;89.84;98823.59;5056488;28;20045;-72
2023/11/17 09:12:00;;;;;;;0.47;0.47;;;;;;;8.76;90.00;98821.88;5056575;28;20121;-71
2023/11/17 09:14:31;;;;;;;0.43;0.43;;;;;;;8.77;89.62;98818.50;5049938;28;20045;-72
2023/11/17 09:17:06;;;;;;;1.63;1.52;;;;;;;8.81;89.41;98825.22;5048492;28;20115;-72
2023/11/17 09:19:38;;;;;;;0.50;0.50;;;;;;;8.78;89.52;98822.75;5048048;28;20415;-72
2023/11/17 09:22:08;;;;;;;0.40;0.38;;;;;;;8.72;88.91;98813.44;5056061;28;20090;-72
2023/11/17 09:24:38;;;;;;;;;;;;;;;8.73;88.49;98822.75;5055427;28;20135;-72
2023/11/17 09:27:09;;;;;;;0.30;0.30;;;;;;;8.69;88.92;98820.22;5056759;28;19921;-71
2023/11/17 09:29:40;;;;;;;0.40;0.40;;;;;;;8.62;88.33;98813.50;5071186;28;20514;-71
2023/11/17 09:32:08;;;;;;;0.55;0.55;;;;;;;8.65;88.22;98826.22;5056472;28;20131;-71
2023/11/17 09:34:37;;;;;;;0.70;0.70;;;;;;;8.69;87.99;98827.88;5055990;28;20037;-71
2023/11/17 09:37:07;;;;;;;0.40;0.40;;;;;;;8.69;87.40;98825.31;5055964;28;20495;-71
2023/11/17 09:39:35;;;;;;;;;;;;;;;8.71;87.60;98831.25;5056439;28;20407;-71
2023/11/17 09:42:05;;;;;;;0.77;0.77;;;;;;;8.72;87.07;98840.56;5055064;28;20007;-71
2023/11/17 09:44:36;;;;;;;0.38;0.38;;;;;;;8.71;87.27;98833.78;5055976;28;20041;-71
2023/11/17 09:47:18;;;;;;;0.63;0.63;;;;;;;8.77;87.14;98838.84;5054621;28;20056;-71
2023/11/17 09:49:49;;;;;;;1.98;0.55;;;;;;;8.77;86.09;98843.94;5054438;28;20045;-71
2023/11/17 09:52:19;;;;;;;0.45;0.45;;;;;;;8.76;85.65;98842.22;5054725;28;20503;-70
2023/11/17 09:54:48;;;;;;;0.50;0.50;;;;;;;8.74;85.72;98838.84;5055689;28;20045;-70
2023/11/17 09:57:19;;;;;;;;;;;;;;;8.72;85.35;98846.50;5055878;28;20052;-70
2023/11/17 09:59:53;;;;;;;0.30;0.30;;;;;;;8.71;84.47;98849.03;5054078;28;19921;-69
2023/11/17 10:02:24;;;;;;;0.50;0.50;;;;;;;8.68;85.01;98849.09;5055534;28;20098;-70
2023/11/17 10:04:56;;;;;;;0.45;0.45;;;;;;;8.70;84.04;98847.38;5055535;28;20044;-71
2023/11/17 10:07:26;;;;;;;0.30;0.30;;;;;;;8.76;84.59;98848.16;5055706;28;20049;-70
2023/11/17 10:09:57;;;;;;;0.40;0.40;;;;;;;8.83;84.23;98848.97;5055327;28;20055;-70
2023/11/17 10:12:28;;;;;;;0.57;0.57;;;;;;;8.90;83.64;98845.50;5055556;28;20067;-70
2023/11/17 10:14:58;;;;;;;0.52;0.52;;;;;;;8.96;83.40;98853.13;5054033;28;20044;-70
2023/11/17 10:17:29;;;;;;;0.70;0.70;;;;;;;8.99;83.23;98845.47;5055123;28;20137;-70
2023/11/17 10:19:58;;;;;;;0.32;0.32;;;;;;;9.05;83.11;98865.75;5054526;28;20426;-71
2023/11/17 10:22:29;;;;;;;0.30;0.30;;;;;;;9.02;82.49;98855.59;5055093;28;20133;-71
2023/11/17 10:24:58;;;;;;;0.30;0.30;;;;;;;9.09;82.38;98867.44;5055337;28;20033;-71
2023/11/17 10:27:29;;;;;;;0.43;0.43;;;;;;;9.21;81.80;98872.41;5055076;28;20041;-71
2023/11/17 10:29:58;;;;;;;0.40;0.40;;;;;;;9.18;82.03;98881.78;5055230;28;20053;-71
2023/11/17 10:32:32;;;;;;;0.40;0.40;;;;;;;9.16;81.76;98886.91;5054775;28;20052;-71
2023/11/17 10:35:31;;;;;;;0.40;0.40;;;;;;;9.10;81.22;98886.94;5053975;28;20475;-71
2023/11/17 10:38:00;;;;;;;0.63;0.63;;;;;;;9.04;81.46;98886.16;5055100;28;20483;-71
2023/11/17 10:40:31;;;;;;;0.43;0.43;;;;;;;9.00;80.84;98902.31;5054669;28;20091;-71
2023/11/17 10:43:07;;;;;;;0.57;0.57;;;;;;;8.96;80.91;98901.47;5054553;28;20102;-70
2023/11/17 10:45:38;;;;;;;1.38;1.05;;;;;;;8.76;80.05;98877.84;5054521;28;20053;-70
2023/11/17 10:48:12;;;;;;;0.82;0.63;;;;;;;8.86;79.88;98904.06;5053379;28;20051;-71
2023/11/17 10:50:43;;;;;;;0.55;0.55;;;;;;;8.84;79.55;98911.72;5054752;28;20063;-70
2023/11/17 10:53:19;;;;;;;0.20;0.20;;;;;;;8.79;79.57;98921.06;5054007;28;20049;-71
2023/11/17 10:55:53;;;;;;;0.32;0.32;;;;;;;8.74;79.13;98915.16;5054745;28;20049;-70
2023/11/17 10:58:22;;;;;;;0.40;0.40;;;;;;;8.78;78.92;98927.03;5054418;28;20044;-70
2023/11/17 11:00:52;;;;;;;0.83;0.83;;;;;;;8.80;79.04;98927.88;5054378;28;20128;-70
2023/11/17 11:03:23;;;;;;;0.75;0.75;;;;;;;8.81;79.61;98923.59;5054253;28;20550;-71
2023/11/17 11:05:58;;;;;;;0.40;0.40;;;;;;;8.84;79.00;98937.16;5053265;28;20044;-70
2023/11/17 11:08:28;;;;;;;0.65;0.65;;;;;;;8.86;78.67;98940.53;5054482;28;20495;-71
2023/11/17 11:10:58;;;;;;;0.63;0.63;;;;;;;8.82;78.12;98938.88;5054038;28;20053;-67
2023/11/17 11:13:28;;;;;;;1.00;0.80;;;;;;;8.80;77.82;98935.50;5054463;28;20053;-68
2023/11/17 11:16:05;;;;;;;1.23;1.05;;;;;;;8.80;77.58;98930.41;5053991;28;20051;-71
2023/11/17 11:18:45;;;;;;;0.30;0.30;;;;;;;8.89;77.98;98934.59;5054445;28;20445;-71
2023/11/17 11:21:17;;;;;;;1.58;1.48;;;;;;;8.88;77.07;98940.56;5053898;28;20036;-71
2023/11/17 11:23:46;;;;;;;0.30;0.30;;;;;;;8.92;77.28;98949.84;5053835;28;20052;-72
2023/11/17 11:26:16;;;;;;;2.13;1.30;;;;;;;8.96;77.77;98956.59;5053971;28;20045;-72
2023/11/17 11:28:46;;;;;;;0.80;0.80;;;;;;;9.02;77.95;98952.31;5054637;28;20049;-72
2023/11/17 11:31:19;;;;;;;0.43;0.43;;;;;;;9.05;77.01;98942.13;5053726;28;20041;-69
2023/11/17 11:33:50;;;;;;;0.45;0.45;;;;;;;9.09;77.09;98940.41;5053668;28;20517;-71
2023/11/17 11:36:19;;;;;;;0.50;0.50;;;;;;;9.13;76.06;98940.38;5054085;28;20048;-72
2023/11/17 11:38:49;;;;;;;0.57;0.57;;;;;;;9.16;75.35;98945.44;5053992;28;20503;-69
2023/11/17 11:41:22;;;;;;;0.50;0.50;;;;;;;9.19;76.01;98949.69;5053628;28;20099;-71
2023/11/17 11:43:52;;;;;;;1.38;1.27;;;;;;;9.20;75.30;98959.00;5053446;28;20072;-71
2023/11/17 11:46:24;;;;;;;0.60;0.60;;;;;;;9.12;75.49;98943.75;5053835;28;20553;-71
2023/11/17 11:48:59;;;;;;;1.48;1.00;;;;;;;9.22;74.69;98949.63;5053617;28;20041;-70
2023/11/17 11:51:32;;;;;;;0.68;0.68;;;;;;;9.28;74.58;98954.69;5053247;28;20041;-71
2023/11/17 11:54:06;;;;;;;0.70;0.70;;;;;;;9.34;74.62;98963.13;5053789;28;20132;-71
2023/11/17 11:56:36;;;;;;;1.60;1.08;;;;;;;9.40;74.40;98960.56;5053661;28;20057;-71
2023/11/17 11:59:06;;;;;;;0.30;0.30;;;;;;;9.47;74.63;98961.34;5053761;28;20041;-71
2023/11/17 12:01:36;;;;;;;0.63;0.63;;;;;;;9.54;74.13;98969.75;5053203;28;20060;-72